Time;durP1;ratioP1;P1;durP2;ratioP2;P2;SDS_P1;SDS_P2;PMS_P1;PMS_P2;Temp;Humidity;BMP_temperature;BMP_pressure;BME280_temperature;BME280_humidity;BME280_pressure;Samples;Min_cycle;Max_cycle;Signal;HPM_P1;HPM_P2
2022/11/18 00:01:12;;;;;;;72.13;12.80;;;9.50;99.90;;;;;;5116068;28;20182;-86
2022/11/18 00:03:38;;;;;;;70.88;12.60;;;9.50;99.90;;;;;;5115847;28;20416;-86
2022/11/18 00:06:05;;;;;;;71.65;10.77;;;9.50;99.90;;;;;;5118859;28;20167;-86
2022/11/18 00:08:31;;;;;;;74.32;13.35;;;9.50;99.90;;;;;;5118594;28;20255;-87
2022/11/18 00:10:57;;;;;;;69.20;14.15;;;9.50;99.90;;;;;;5119316;28;20193;-86
2022/11/18 00:16:10;;;;;;;71.43;13.35;;;9.50;99.90;;;;;;5119289;28;20204;-86
2022/11/18 00:18:37;;;;;;;72.13;14.05;;;9.50;99.90;;;;;;5118391;28;20165;-86
2022/11/18 00:21:04;;;;;;;71.40;13.38;;;9.40;99.90;;;;;;5119925;28;20655;-87
2022/11/18 00:23:31;;;;;;;71.43;15.52;;;9.40;99.90;;;;;;5191354;22;20223;-87
2022/11/18 00:26:13;;;;;;;73.25;13.45;;;9.40;99.90;;;;;;5061273;28;20164;-87
2022/11/18 00:28:40;;;;;;;71.20;13.73;;;9.40;99.90;;;;;;5079598;28;20219;-87
2022/11/18 00:31:08;;;;;;;71.40;13.02;;;9.50;99.90;;;;;;5076896;28;20196;-87
2022/11/18 00:33:35;;;;;;;75.30;12.00;;;9.40;99.90;;;;;;5079157;28;20168;-87
2022/11/18 00:36:02;;;;;;;74.40;15.27;;;9.40;99.90;;;;;;5078310;28;20607;-87
2022/11/18 00:38:28;;;;;;;71.25;14.77;;;9.50;99.90;;;;;;5079661;28;20152;-87
2022/11/18 00:40:59;;;;;;;72.90;11.85;;;9.50;99.90;;;;;;5079178;28;20188;-87
2022/11/18 00:43:24;;;;;;;67.65;10.43;;;9.50;99.90;;;;;;5080280;28;20156;-87
2022/11/18 00:45:50;;;;;;;69.10;12.07;;;9.50;99.90;;;;;;5080439;28;20199;-87
2022/11/18 00:48:20;;;;;;;70.23;12.70;;;9.60;99.90;;;;;;5079313;28;20198;-88
2022/11/18 00:50:47;;;;;;;71.70;16.15;;;9.60;99.90;;;;;;5079810;28;20180;-87
2022/11/18 00:53:13;;;;;;;70.20;15.45;;;9.50;99.90;;;;;;5079019;28;20216;-87
2022/11/18 00:55:38;;;;;;;71.63;15.03;;;9.50;99.90;;;;;;5080138;28;20266;-86
2022/11/18 00:58:04;;;;;;;72.00;15.77;;;9.50;99.90;;;;;;5080227;28;20274;-87
2022/11/18 01:00:33;;;;;;;72.87;16.10;;;9.50;99.90;;;;;;5081319;28;20660;-87
2022/11/18 01:02:58;;;;;;;73.25;14.20;;;9.40;99.90;;;;;;5082003;28;20609;-87
2022/11/18 01:05:24;;;;;;;74.57;13.90;;;9.40;99.90;;;;;;5080579;28;20167;-87
2022/11/18 01:07:49;;;;;;;72.87;17.37;;;9.40;99.90;;;;;;5080772;28;20168;-87
2022/11/18 01:10:16;;;;;;;71.67;17.13;;;9.40;99.90;;;;;;5079939;28;20195;-87
2022/11/18 01:15:26;;;;;;;73.20;18.48;;;9.40;99.90;;;;;;5081267;28;20210;-87
2022/11/18 01:17:51;;;;;;;71.63;14.10;;;9.40;99.90;;;;;;5081420;28;20641;-87
2022/11/18 01:20:17;;;;;;;72.83;20.67;;;9.40;99.90;;;;;;5080161;28;20180;-87
2022/11/18 01:22:43;;;;;;;72.17;17.27;;;9.40;99.90;;;;;;5080951;28;20399;-87
2022/11/18 01:25:08;;;;;;;71.97;19.30;;;9.40;99.90;;;;;;5078512;28;20237;-87
2022/11/18 01:27:34;;;;;;;71.13;17.03;;;9.40;99.90;;;;;;5079986;28;20155;-87
2022/11/18 01:30:00;;;;;;;71.10;18.07;;;9.40;99.90;;;;;;5079575;28;20195;-86
2022/11/18 01:32:27;;;;;;;75.93;17.83;;;9.40;99.90;;;;;;5079670;28;20533;-87
2022/11/18 01:34:53;;;;;;;75.55;18.27;;;9.40;99.90;;;;;;5079780;28;20236;-87
2022/11/18 01:37:21;;;;;;;68.90;13.00;;;9.40;99.90;;;;;;5078280;28;20651;-87
2022/11/18 01:39:47;;;;;;;73.13;14.95;;;9.50;99.90;;;;;;5077892;28;20180;-87
2022/11/18 01:42:15;;;;;;;72.30;15.60;;;9.50;99.90;;;;;;5078079;28;20202;-87
2022/11/18 01:45:16;;;;;;;73.60;17.15;;;9.50;99.90;;;;;;5079525;28;20178;-87
2022/11/18 01:47:47;;;;;;;73.47;14.40;;;9.50;99.90;;;;;;5001716;28;20169;-87
2022/11/18 01:50:19;;;;;;;75.90;13.93;;;9.50;99.90;;;;;;5074117;28;20195;-87
2022/11/18 01:52:45;;;;;;;71.85;16.67;;;9.50;99.90;;;;;;5078001;28;20168;-86
2022/11/18 01:55:17;;;;;;;72.57;14.45;;;9.50;99.90;;;;;;5079881;28;20179;-87
2022/11/18 01:57:46;;;;;;;74.40;15.00;;;9.60;99.90;;;;;;5078576;28;20186;-87
2022/11/18 02:00:13;;;;;;;72.07;17.35;;;9.50;99.90;;;;;;5077760;28;20564;-87
2022/11/18 02:02:39;;;;;;;73.50;15.35;;;9.50;99.90;;;;;;5078707;28;20171;-86
2022/11/18 02:05:07;;;;;;;72.20;14.95;;;9.50;99.90;;;;;;5078639;28;20172;-87
2022/11/18 02:07:40;;;;;;;71.72;14.95;;;9.50;99.90;;;;;;5077626;28;20180;-86
2022/11/18 02:10:07;;;;;;;73.90;14.48;;;9.50;99.90;;;;;;5077520;28;20191;-87
2022/11/18 02:12:34;;;;;;;72.00;15.93;;;9.50;99.90;;;;;;5079371;28;20168;-86
2022/11/18 02:15:01;;;;;;;77.85;15.40;;;9.60;99.90;;;;;;5079014;28;20188;-86
2022/11/18 02:17:38;;;;;;;76.82;18.50;;;9.50;99.90;;;;;;5079197;28;20158;-86
2022/11/18 02:20:25;;;;;;;80.55;18.13;;;9.50;99.90;;;;;;5078187;28;20180;-87
2022/11/18 02:23:15;;;;;;;73.55;19.88;;;9.50;99.90;;;;;;5080514;28;20178;-86
2022/11/18 02:26:15;;;;;;;72.32;18.55;;;9.40;99.90;;;;;;5079166;28;20163;-87
2022/11/18 02:29:09;;;;;;;68.97;14.52;;;9.40;99.90;;;;;;5079953;28;20152;-86
2022/11/18 02:31:56;;;;;;;83.90;16.80;;;9.40;99.90;;;;;;5062106;28;20179;-86
2022/11/18 02:34:40;;;;;;;73.30;15.35;;;9.40;99.90;;;;;;5081896;28;20168;-87
2022/11/18 02:37:37;;;;;;;79.72;16.17;;;9.40;99.90;;;;;;5078797;28;20247;-87
2022/11/18 02:40:15;;;;;;;70.50;15.55;;;9.40;99.90;;;;;;5047440;28;20223;-87
2022/11/18 02:42:43;;;;;;;78.10;17.45;;;9.40;99.90;;;;;;5079926;28;20644;-87
2022/11/18 02:45:14;;;;;;;73.07;16.05;;;9.40;99.90;;;;;;5079674;28;20637;-87
2022/11/18 02:47:43;;;;;;;77.97;15.05;;;9.40;99.90;;;;;;5079667;28;20166;-86
2022/11/18 02:50:13;;;;;;;73.15;15.55;;;9.40;99.90;;;;;;5079003;28;20263;-87
2022/11/18 02:52:44;;;;;;;73.97;16.33;;;9.40;99.90;;;;;;5078318;28;20584;-87
2022/11/18 02:55:13;;;;;;;74.50;17.65;;;9.40;99.90;;;;;;5076399;28;20194;-87
2022/11/18 02:57:40;;;;;;;72.82;16.40;;;9.40;99.90;;;;;;5077738;28;20229;-87
2022/11/18 03:00:06;;;;;;;72.03;13.50;;;9.40;99.90;;;;;;5078196;28;20191;-87
2022/11/18 03:02:44;;;;;;;71.20;15.60;;;9.40;99.90;;;;;;5078040;28;20191;-86
2022/11/18 03:05:23;;;;;;;71.03;14.55;;;9.50;99.90;;;;;;5077608;28;20533;-87
2022/11/18 03:07:55;;;;;;;69.97;12.02;;;9.40;99.90;;;;;;5077396;28;20156;-87
2022/11/18 03:10:24;;;;;;;74.50;11.82;;;9.50;99.90;;;;;;5076465;28;20187;-86
2022/11/18 03:13:18;;;;;;;71.75;12.15;;;9.50;99.90;;;;;;5078677;28;20160;-87
2022/11/18 03:15:48;;;;;;;75.25;10.25;;;9.50;99.90;;;;;;5079191;28;20742;-86
2022/11/18 03:19:02;;;;;;;71.00;10.15;;;9.40;99.90;;;;;;5077274;28;20247;-87
2022/11/18 03:21:58;;;;;;;70.25;10.20;;;9.40;99.90;;;;;;5060000;28;20518;-87
2022/11/18 03:24:29;;;;;;;69.82;10.77;;;9.40;99.90;;;;;;5055147;28;20188;-87
2022/11/18 03:27:18;;;;;;;73.35;11.60;;;9.40;99.90;;;;;;5076872;28;20159;-86
2022/11/18 03:29:52;;;;;;;71.22;10.48;;;9.40;99.90;;;;;;5076785;28;20195;-87
2022/11/18 03:32:23;;;;;;;68.60;9.50;;;9.40;99.90;;;;;;5078391;28;20144;-86
2022/11/18 03:35:02;;;;;;;69.95;11.93;;;9.50;99.90;;;;;;5078947;28;20551;-86
2022/11/18 03:37:30;;;;;;;72.28;11.43;;;9.40;99.90;;;;;;5077635;28;20252;-87
2022/11/18 03:40:02;;;;;;;68.97;10.20;;;9.40;99.90;;;;;;5076668;28;20328;-86
2022/11/18 03:42:42;;;;;;;73.75;13.40;;;9.40;99.90;;;;;;5077415;28;20686;-87
2022/11/18 03:45:34;;;;;;;72.80;13.38;;;9.40;99.90;;;;;;5077318;28;20167;-86
2022/11/18 03:48:07;;;;;;;72.15;13.50;;;9.40;99.90;;;;;;5078280;28;20549;-86
2022/11/18 03:50:38;;;;;;;73.00;14.02;;;9.40;99.90;;;;;;5082295;28;20722;-86
2022/11/18 03:53:05;;;;;;;70.20;13.52;;;9.40;99.90;;;;;;5082644;28;20246;-86
2022/11/18 03:55:38;;;;;;;71.85;13.57;;;9.30;99.90;;;;;;5082262;28;20187;-87
2022/11/18 03:58:06;;;;;;;77.32;13.25;;;9.40;99.90;;;;;;5080984;28;20659;-87
2022/11/18 04:00:39;;;;;;;73.38;16.42;;;9.30;99.90;;;;;;5084574;28;20183;-87
2022/11/18 04:03:05;;;;;;;73.47;13.30;;;9.30;99.90;;;;;;5086528;28;20154;-87
2022/11/18 04:05:36;;;;;;;83.07;15.10;;;9.30;99.90;;;;;;5085836;28;20164;-87
2022/11/18 04:08:06;;;;;;;72.40;14.27;;;9.30;99.90;;;;;;5083964;28;20471;-87
2022/11/18 04:10:35;;;;;;;74.43;12.50;;;9.30;99.90;;;;;;5083181;28;20192;-87
2022/11/18 04:13:05;;;;;;;74.15;12.63;;;9.30;99.90;;;;;;5083552;28;20174;-87
2022/11/18 04:15:31;;;;;;;73.57;13.20;;;9.30;99.90;;;;;;5084101;28;20703;-87
2022/11/18 04:17:58;;;;;;;73.03;15.50;;;9.30;99.90;;;;;;5292057;22;20226;-86
2022/11/18 04:20:24;;;;;;;77.75;17.88;;;9.30;99.90;;;;;;5196146;22;20219;-86
2022/11/18 04:22:50;;;;;;;73.65;14.75;;;9.30;99.90;;;;;;5077760;28;20255;-86
2022/11/18 04:25:16;;;;;;;79.67;14.60;;;9.20;99.90;;;;;;5077604;28;20624;-86
2022/11/18 04:27:41;;;;;;;77.77;15.93;;;9.20;99.90;;;;;;5077414;28;20163;-86
2022/11/18 04:30:08;;;;;;;70.23;13.77;;;9.30;99.90;;;;;;5077260;28;20430;-86
2022/11/18 04:32:34;;;;;;;71.68;14.38;;;9.30;99.90;;;;;;5077308;28;20160;-86
2022/11/18 04:34:59;;;;;;;73.57;12.70;;;9.30;99.90;;;;;;5077001;28;20187;-86
2022/11/18 04:37:25;;;;;;;69.97;14.10;;;9.30;99.90;;;;;;5075588;28;20420;-86
2022/11/18 04:39:51;;;;;;;73.00;12.90;;;9.30;99.90;;;;;;5077115;28;20182;-86
2022/11/18 04:42:16;;;;;;;71.47;11.90;;;9.30;99.90;;;;;;5076828;28;20191;-86
2022/11/18 04:44:42;;;;;;;69.93;9.90;;;9.30;99.90;;;;;;5077092;28;20190;-86
2022/11/18 04:47:08;;;;;;;71.33;10.87;;;9.30;99.90;;;;;;5077299;28;20159;-86
2022/11/18 04:49:34;;;;;;;71.63;12.70;;;9.30;99.90;;;;;;5077095;28;20214;-86
2022/11/18 04:52:00;;;;;;;73.35;10.77;;;9.30;99.90;;;;;;5077329;28;20235;-86
2022/11/18 04:54:27;;;;;;;72.82;12.73;;;9.30;99.90;;;;;;5075988;28;20164;-86
2022/11/18 04:56:54;;;;;;;72.25;12.63;;;9.30;99.90;;;;;;5075752;28;20192;-86
2022/11/18 04:59:26;;;;;;;70.63;11.85;;;9.30;99.90;;;;;;5076585;28;20187;-86
2022/11/18 05:01:52;;;;;;;72.88;10.85;;;9.30;99.90;;;;;;5076749;28;20164;-86
2022/11/18 05:04:21;;;;;;;71.60;8.52;;;9.40;99.90;;;;;;5075819;28;20167;-86
2022/11/18 05:06:47;;;;;;;70.55;11.82;;;9.40;99.90;;;;;;5077270;28;20200;-86
2022/11/18 05:09:13;;;;;;;71.43;9.75;;;9.40;99.90;;;;;;5075521;28;20202;-86
2022/11/18 05:14:27;;;;;;;70.75;9.13;;;9.30;99.90;;;;;;5076614;28;20159;-86
2022/11/18 05:16:55;;;;;;;68.05;8.23;;;9.30;99.90;;;;;;5075036;28;20275;-86
2022/11/18 05:19:20;;;;;;;69.15;8.57;;;9.30;99.90;;;;;;5075825;28;20187;-86
2022/11/18 05:21:46;;;;;;;68.20;8.03;;;9.30;99.90;;;;;;5076464;28;20289;-86
2022/11/18 05:24:12;;;;;;;68.33;7.80;;;9.30;99.90;;;;;;5074669;28;20407;-86
2022/11/18 05:26:38;;;;;;;72.00;8.15;;;9.30;99.90;;;;;;5075042;28;20200;-86
2022/11/18 05:29:06;;;;;;;68.27;7.50;;;9.20;99.90;;;;;;5074885;28;20195;-86
2022/11/18 05:31:32;;;;;;;66.65;6.97;;;9.20;99.90;;;;;;5075266;28;20171;-86
2022/11/18 05:33:58;;;;;;;69.13;8.27;;;9.10;99.90;;;;;;5077946;28;20164;-86
2022/11/18 05:36:24;;;;;;;69.93;7.70;;;9.00;99.90;;;;;;5075179;28;20328;-86
2022/11/18 05:38:50;;;;;;;68.20;9.60;;;9.00;99.90;;;;;;5076063;28;20164;-86
2022/11/18 05:43:56;;;;;;;69.50;8.85;;;9.10;99.90;;;;;;5174292;22;20219;-86
2022/11/18 05:46:22;;;;;;;71.20;10.37;;;9.10;99.90;;;;;;5081881;28;20175;-86
2022/11/18 05:48:47;;;;;;;71.93;10.33;;;9.00;99.90;;;;;;5081309;28;20387;-86
2022/11/18 05:51:15;;;;;;;73.37;11.97;;;9.10;99.90;;;;;;5079447;28;20191;-86
2022/11/18 05:53:41;;;;;;;73.70;13.27;;;9.10;99.90;;;;;;5079633;28;20167;-85
2022/11/18 05:56:34;;;;;;;70.88;13.00;;;9.10;99.90;;;;;;5080312;28;20245;-86
2022/11/18 05:59:00;;;;;;;74.85;12.60;;;9.10;99.90;;;;;;5079512;28;20198;-86
2022/11/18 06:01:44;;;;;;;70.13;11.77;;;9.10;99.90;;;;;;5081268;28;20164;-85
2022/11/18 06:04:33;;;;;;;69.95;11.77;;;9.10;99.90;;;;;;5080360;28;20251;-86
2022/11/18 06:07:31;;;;;;;69.15;11.50;;;9.10;99.90;;;;;;5081006;28;20148;-85
2022/11/18 06:09:58;;;;;;;69.88;9.63;;;9.00;99.90;;;;;;5069543;28;20561;-86
2022/11/18 06:12:29;;;;;;;68.30;10.18;;;8.90;99.90;;;;;;5078981;28;20164;-85
2022/11/18 06:15:02;;;;;;;68.93;9.65;;;8.90;99.90;;;;;;5080735;28;20182;-85
2022/11/18 06:17:39;;;;;;;70.00;9.70;;;8.90;99.90;;;;;;5079328;28;20160;-86
2022/11/18 06:20:06;;;;;;;67.97;8.40;;;8.90;99.90;;;;;;5078779;28;20191;-85
2022/11/18 06:22:33;;;;;;;71.22;10.23;;;8.80;99.90;;;;;;5079682;28;20217;-85
2022/11/18 06:25:00;;;;;;;73.10;12.48;;;8.80;99.90;;;;;;5078634;28;20202;-84
2022/11/18 06:27:26;;;;;;;70.28;12.80;;;8.80;99.90;;;;;;5079879;28;20252;-84
2022/11/18 06:29:51;;;;;;;71.30;12.43;;;8.80;99.90;;;;;;5078084;28;20215;-84
2022/11/18 06:32:17;;;;;;;71.30;11.43;;;8.80;99.90;;;;;;5078594;28;20172;-84
2022/11/18 06:34:42;;;;;;;72.33;11.23;;;8.80;99.90;;;;;;5077647;28;20184;-85
2022/11/18 06:37:13;;;;;;;69.57;12.17;;;8.90;99.90;;;;;;5077715;28;20160;-85
2022/11/18 06:39:38;;;;;;;71.95;14.50;;;8.90;99.90;;;;;;5078671;28;20179;-85
2022/11/18 06:42:04;;;;;;;68.87;12.20;;;8.80;99.90;;;;;;5076985;28;20183;-85
2022/11/18 06:44:30;;;;;;;71.37;15.17;;;8.80;99.90;;;;;;5079194;28;20219;-86
2022/11/18 06:46:56;;;;;;;72.20;15.73;;;8.90;99.90;;;;;;5079736;28;20163;-85
2022/11/18 06:49:23;;;;;;;74.03;12.13;;;8.90;99.90;;;;;;5079104;28;20187;-84
2022/11/18 06:51:48;;;;;;;72.47;12.98;;;8.90;99.90;;;;;;5079176;28;20394;-86
2022/11/18 06:54:14;;;;;;;71.37;13.60;;;8.90;99.90;;;;;;5079849;28;20620;-85
2022/11/18 06:56:40;;;;;;;73.20;12.80;;;8.90;99.90;;;;;;5079487;28;20246;-85
2022/11/18 06:59:06;;;;;;;71.13;14.20;;;8.90;99.90;;;;;;5077783;28;20170;-86
2022/11/18 07:01:35;;;;;;;69.85;13.82;;;8.90;99.90;;;;;;5079096;28;20164;-86
2022/11/18 07:04:01;;;;;;;72.35;15.23;;;9.00;99.90;;;;;;5079373;28;20164;-86
2022/11/18 07:06:29;;;;;;;71.03;14.75;;;8.90;99.90;;;;;;5079165;28;20171;-85
2022/11/18 07:08:55;;;;;;;72.10;15.35;;;8.90;99.90;;;;;;5079109;28;20198;-85
2022/11/18 07:11:25;;;;;;;75.65;15.73;;;9.00;99.90;;;;;;5078802;28;20160;-85
2022/11/18 07:13:52;;;;;;;74.40;16.83;;;9.00;99.90;;;;;;5077741;28;20156;-85
2022/11/18 07:16:20;;;;;;;80.55;14.88;;;8.90;99.90;;;;;;5078771;28;20266;-85
2022/11/18 07:18:47;;;;;;;69.68;13.13;;;9.00;99.90;;;;;;5079355;28;20171;-85
2022/11/18 07:21:25;;;;;;;71.13;14.60;;;9.00;99.90;;;;;;5077570;28;20188;-85
2022/11/18 07:23:51;;;;;;;74.68;14.82;;;9.00;99.90;;;;;;5081729;28;20174;-85
2022/11/18 07:26:17;;;;;;;72.53;13.73;;;9.10;99.90;;;;;;5083264;28;20526;-85
2022/11/18 07:28:43;;;;;;;73.40;15.80;;;9.10;99.90;;;;;;5083842;28;20167;-85
2022/11/18 07:31:11;;;;;;;75.17;15.20;;;9.10;99.90;;;;;;5082322;28;20846;-85
2022/11/18 07:33:39;;;;;;;73.10;16.30;;;9.10;99.90;;;;;;5083299;28;20163;-85
2022/11/18 07:36:16;;;;;;;73.18;13.65;;;9.10;99.90;;;;;;5083068;28;20187;-85
2022/11/18 07:38:43;;;;;;;73.47;13.63;;;9.20;99.90;;;;;;5083661;28;20202;-85
2022/11/18 07:41:13;;;;;;;75.10;14.95;;;9.20;99.90;;;;;;5083758;28;20211;-85
2022/11/18 07:43:39;;;;;;;72.68;14.13;;;9.30;99.90;;;;;;5082128;28;20188;-85
2022/11/18 07:46:17;;;;;;;71.60;15.80;;;9.30;99.90;;;;;;5083686;28;20559;-85
2022/11/18 07:48:45;;;;;;;72.07;13.63;;;9.30;99.90;;;;;;5081622;28;20394;-85
2022/11/18 07:51:12;;;;;;;74.40;14.27;;;9.30;99.90;;;;;;5082879;28;20318;-84
2022/11/18 07:53:37;;;;;;;73.05;14.98;;;9.30;99.90;;;;;;5081415;28;20566;-85
2022/11/18 07:56:04;;;;;;;76.03;13.80;;;9.40;99.90;;;;;;5081872;28;20222;-85
2022/11/18 07:58:30;;;;;;;73.72;14.30;;;9.50;99.90;;;;;;5083439;28;20402;-83
2022/11/18 08:00:56;;;;;;;73.28;13.73;;;9.50;99.90;;;;;;5082415;28;20278;-85
2022/11/18 08:03:26;;;;;;;73.40;12.87;;;9.60;99.90;;;;;;5082587;28;20188;-85
2022/11/18 08:06:02;;;;;;;72.18;14.00;;;9.70;99.90;;;;;;5082644;28;20184;-85
2022/11/18 08:08:29;;;;;;;73.80;16.20;;;9.80;99.90;;;;;;5081977;28;20163;-85
2022/11/18 08:10:56;;;;;;;75.72;15.75;;;9.80;99.90;;;;;;5082354;28;20188;-85
2022/11/18 08:13:22;;;;;;;76.88;16.42;;;9.90;99.90;;;;;;5080563;28;20171;-85
2022/11/18 08:15:48;;;;;;;76.57;14.88;;;10.00;99.90;;;;;;5081373;28;20223;-85
2022/11/18 08:18:14;;;;;;;74.90;12.23;;;10.10;99.90;;;;;;5081108;28;20641;-85
2022/11/18 08:20:43;;;;;;;71.30;14.20;;;10.10;99.90;;;;;;5080427;28;20553;-85
2022/11/18 08:23:09;;;;;;;73.90;12.60;;;10.10;99.90;;;;;;5082430;28;20156;-85
2022/11/18 08:25:35;;;;;;;74.78;14.70;;;10.10;99.90;;;;;;5082482;28;20171;-85
2022/11/18 08:28:01;;;;;;;71.33;12.07;;;10.20;99.90;;;;;;5080517;28;20541;-85
2022/11/18 08:30:26;;;;;;;83.90;11.47;;;10.20;99.90;;;;;;5080127;28;20194;-85
2022/11/18 08:32:52;;;;;;;72.57;9.97;;;10.30;99.90;;;;;;5081155;28;20164;-85
2022/11/18 08:35:18;;;;;;;73.80;12.03;;;10.40;99.90;;;;;;5080811;28;20187;-85
2022/11/18 08:37:43;;;;;;;83.23;12.13;;;10.40;99.90;;;;;;5081424;28;20655;-85
2022/11/18 08:40:10;;;;;;;71.00;9.27;;;10.40;99.90;;;;;;5081292;28;20176;-85
2022/11/18 08:42:36;;;;;;;73.03;10.70;;;10.40;99.90;;;;;;5079414;28;20182;-85
2022/11/18 08:45:09;;;;;;;76.20;9.60;;;10.40;99.90;;;;;;5081409;28;20140;-85
2022/11/18 08:47:35;;;;;;;72.35;8.95;;;10.40;99.90;;;;;;5081411;28;20160;-85
2022/11/18 08:50:04;;;;;;;74.10;10.73;;;10.40;99.90;;;;;;5079736;28;20196;-85
2022/11/18 08:52:29;;;;;;;75.65;10.95;;;10.40;99.90;;;;;;5080781;28;20633;-84
2022/11/18 08:54:55;;;;;;;71.07;10.80;;;10.40;99.90;;;;;;5081735;28;20167;-84
2022/11/18 08:57:21;;;;;;;73.90;10.50;;;10.40;99.90;;;;;;5081790;28;20164;-84
2022/11/18 08:59:47;;;;;;;73.00;8.97;;;10.30;99.90;;;;;;5081842;28;20215;-85
2022/11/18 09:02:17;;;;;;;70.87;9.40;;;10.30;99.90;;;;;;5080021;28;20782;-84
2022/11/18 09:04:45;;;;;;;72.10;10.45;;;10.40;99.90;;;;;;5080741;28;20183;-85
2022/11/18 09:07:10;;;;;;;70.60;10.70;;;10.40;99.90;;;;;;5080248;28;20604;-85
2022/11/18 09:09:36;;;;;;;68.80;10.50;;;10.40;99.90;;;;;;5079502;28;20214;-84
2022/11/18 09:12:02;;;;;;;72.50;10.33;;;10.30;99.90;;;;;;5079769;28;20160;-84
2022/11/18 09:14:28;;;;;;;67.70;9.40;;;10.40;99.90;;;;;;5080641;28;20576;-85
2022/11/18 09:16:53;;;;;;;70.97;9.53;;;10.40;99.90;;;;;;5080119;28;20277;-85
2022/11/18 09:19:19;;;;;;;68.80;9.80;;;10.30;99.90;;;;;;5081617;28;20429;-85
2022/11/18 09:21:45;;;;;;;69.17;9.97;;;10.30;99.90;;;;;;5081105;28;20164;-85
2022/11/18 09:24:10;;;;;;;69.40;8.70;;;10.40;99.90;;;;;;5080633;28;20194;-85
2022/11/18 09:26:37;;;;;;;70.80;10.23;;;10.40;99.90;;;;;;5080795;28;20171;-85
2022/11/18 09:29:03;;;;;;;69.20;9.02;;;10.40;99.90;;;;;;5080857;28;20176;-85
2022/11/18 09:31:29;;;;;;;71.88;9.23;;;10.40;99.90;;;;;;5079625;28;20254;-85
2022/11/18 09:33:54;;;;;;;68.73;8.80;;;10.40;99.90;;;;;;5080801;28;20183;-85
2022/11/18 09:36:24;;;;;;;67.73;9.47;;;10.50;99.90;;;;;;5080749;28;20445;-85
2022/11/18 09:38:51;;;;;;;71.45;10.68;;;10.50;99.90;;;;;;5080295;28;20239;-85
2022/11/18 09:41:35;;;;;;;67.63;8.50;;;10.50;99.90;;;;;;5080634;28;20588;-85
2022/11/18 09:44:12;;;;;;;68.63;9.00;;;10.50;99.90;;;;;;5079348;28;20179;-85
2022/11/18 09:47:01;;;;;;;72.35;12.02;;;10.60;99.90;;;;;;5079555;28;20147;-85
2022/11/18 09:49:31;;;;;;;70.30;15.30;;;10.70;99.90;;;;;;5080341;28;20187;-85
2022/11/18 09:52:01;;;;;;;71.93;14.60;;;10.80;99.90;;;;;;5079357;28;20648;-85
2022/11/18 09:54:32;;;;;;;69.55;13.55;;;10.80;99.90;;;;;;5080220;28;20152;-85
2022/11/18 09:56:59;;;;;;;67.70;11.25;;;10.90;99.90;;;;;;5078677;28;20195;-85
2022/11/18 09:59:29;;;;;;;66.07;8.45;;;11.10;99.90;;;;;;5080253;28;20179;-85
2022/11/18 10:02:01;;;;;;;66.60;9.90;;;11.20;99.90;;;;;;5078743;28;20228;-85
2022/11/18 10:04:27;;;;;;;67.90;8.80;;;11.30;99.90;;;;;;5080081;28;20168;-85
2022/11/18 10:06:53;;;;;;;65.90;7.38;;;11.40;99.90;;;;;;5078398;28;20165;-85
2022/11/18 10:09:36;;;;;;;73.40;6.97;;;11.50;99.90;;;;;;5079739;28;20184;-85
2022/11/18 10:12:31;;;;;;;66.72;6.85;;;11.60;99.90;;;;;;5080003;28;20231;-85
2022/11/18 10:15:18;;;;;;;70.07;7.63;;;11.70;99.90;;;;;;5079409;28;20176;-85
2022/11/18 10:17:59;;;;;;;67.63;6.05;;;11.80;99.90;;;;;;5078398;28;20253;-85
2022/11/18 10:20:34;;;;;;;72.38;6.72;;;11.90;99.90;;;;;;5078337;28;20245;-85
2022/11/18 10:23:12;;;;;;;67.32;6.50;;;12.00;99.90;;;;;;5078877;28;20164;-85
2022/11/18 10:25:37;;;;;;;68.45;8.02;;;12.10;99.90;;;;;;5078446;28;20170;-85
2022/11/18 10:28:29;;;;;;;66.90;8.10;;;12.10;99.90;;;;;;5078120;28;20167;-85
2022/11/18 10:31:10;;;;;;;71.13;7.78;;;12.10;99.90;;;;;;5074868;28;20206;-85
2022/11/18 10:33:37;;;;;;;67.88;8.55;;;12.10;99.90;;;;;;5079959;28;20533;-84
2022/11/18 10:36:26;;;;;;;77.57;8.43;;;12.20;99.90;;;;;;5080059;28;20196;-85
2022/11/18 10:39:13;;;;;;;69.30;8.05;;;12.30;99.90;;;;;;5079497;28;20139;-85
2022/11/18 10:41:48;;;;;;;70.60;8.88;;;12.30;99.90;;;;;;5080283;28;20167;-85
2022/11/18 10:44:38;;;;;;;70.93;9.23;;;12.40;99.90;;;;;;5078011;28;20183;-85
2022/11/18 10:47:28;;;;;;;73.55;8.20;;;12.50;99.90;;;;;;5078952;28;20160;-85
2022/11/18 10:49:59;;;;;;;69.10;6.22;;;12.50;99.90;;;;;;5079442;28;20194;-85
2022/11/18 10:52:26;;;;;;;67.60;5.63;;;12.60;99.90;;;;;;5078131;28;20156;-85
2022/11/18 10:55:28;;;;;;;67.65;4.88;;;12.60;99.90;;;;;;5078905;28;20168;-86
2022/11/18 10:58:08;;;;;;;69.53;4.70;;;12.70;99.90;;;;;;5001891;28;20508;-85
2022/11/18 11:00:41;;;;;;;69.10;4.22;;;12.70;99.90;;;;;;5070195;28;20200;-85
2022/11/18 11:03:27;;;;;;;70.43;4.35;;;12.70;99.90;;;;;;5078353;28;20633;-85
2022/11/18 11:06:14;;;;;;;66.60;3.95;;;12.60;99.90;;;;;;5080312;28;20163;-85
2022/11/18 11:08:51;;;;;;;70.20;4.57;;;12.40;99.90;;;;;;5080405;28;20164;-85
2022/11/18 11:11:25;;;;;;;69.20;4.93;;;12.20;99.90;;;;;;5079709;28;20188;-85
2022/11/18 11:13:57;;;;;;;67.28;4.93;;;12.20;99.90;;;;;;5079933;28;20613;-85
2022/11/18 11:16:25;;;;;;;66.22;4.38;;;12.10;99.90;;;;;;5078864;28;20195;-86
2022/11/18 11:18:57;;;;;;;67.50;5.57;;;12.00;99.90;;;;;;5079773;28;20163;-85
2022/11/18 11:21:29;;;;;;;69.18;4.85;;;12.00;99.90;;;;;;5080350;28;20171;-85
2022/11/18 11:23:55;;;;;;;67.88;5.13;;;12.10;99.90;;;;;;5080280;28;20515;-85
2022/11/18 11:26:43;;;;;;;67.57;5.97;;;12.10;99.90;;;;;;5061668;28;20175;-86
2022/11/18 11:29:35;;;;;;;67.28;5.30;;;12.00;99.90;;;;;;5079754;28;20198;-87
2022/11/18 11:32:27;;;;;;;68.00;6.57;;;12.00;99.90;;;;;;5080464;28;20149;-85
2022/11/18 11:35:10;;;;;;;67.03;5.97;;;11.90;99.90;;;;;;5080047;28;20613;-86
2022/11/18 11:38:03;;;;;;;69.93;6.10;;;12.00;99.90;;;;;;5078019;28;20167;-85
2022/11/18 11:40:53;;;;;;;70.30;6.88;;;12.00;99.90;;;;;;5078833;28;20210;-85
2022/11/18 11:43:49;;;;;;;70.22;5.32;;;12.10;99.90;;;;;;5096304;22;20223;-87
2022/11/18 11:46:34;;;;;;;;;;;;;;;;;;;;;
2022/11/18 11:49:37;;;;;;;69.20;4.32;;;12.40;99.90;;;;;;5092966;28;20177;-87
2022/11/18 11:52:25;;;;;;;65.45;3.80;;;12.50;99.90;;;;;;5093412;28;20183;-88
2022/11/18 11:55:06;;;;;;;69.93;3.95;;;12.60;99.90;;;;;;5089659;28;20182;-88
2022/11/18 11:58:23;;;;;;;69.88;4.63;;;12.50;99.90;;;;;;5092102;28;20182;-88
2022/11/18 12:01:16;;;;;;;;;;;;;;;;;;;;;
2022/11/18 12:04:10;;;;;;;68.30;5.47;;;12.30;99.90;;;;;;5092966;28;20177;-87
2022/11/18 12:06:36;;;;;;;70.70;5.28;;;12.40;99.90;;;;;;5092272;28;20182;-87
2022/11/18 12:09:14;;;;;;;65.93;4.20;;;12.40;99.90;;;;;;5092123;28;20258;-88
2022/11/18 12:12:00;;;;;;;65.97;4.60;;;12.40;99.90;;;;;;5095501;28;20208;-88
2022/11/18 12:14:39;;;;;;;69.97;4.55;;;12.40;99.90;;;;;;5095715;28;20628;-88
2022/11/18 12:17:22;;;;;;;71.20;4.50;;;12.50;99.90;;;;;;5095514;28;20186;-87
2022/11/18 12:19:48;;;;;;;66.88;3.90;;;12.50;99.90;;;;;;5096632;28;20183;-87
2022/11/18 12:22:19;;;;;;;66.20;3.97;;;12.60;99.90;;;;;;5096602;28;20167;-88
2022/11/18 12:24:48;;;;;;;69.07;4.07;;;12.70;99.90;;;;;;5097133;28;20159;-88
2022/11/18 12:27:22;;;;;;;73.80;3.95;;;12.70;99.90;;;;;;5095595;28;20166;-88
2022/11/18 12:29:55;;;;;;;72.95;3.90;;;12.70;99.90;;;;;;5097005;28;20185;-88
2022/11/18 12:32:35;;;;;;;69.20;3.65;;;12.70;98.00;;;;;;5096115;28;20178;-87
2022/11/18 12:35:12;;;;;;;74.85;3.90;;;12.80;99.90;;;;;;5079088;28;20208;-87
2022/11/18 12:37:45;;;;;;;73.40;4.20;;;12.80;94.20;;;;;;5096964;28;20614;-87
2022/11/18 12:40:37;;;;;;;68.82;3.80;;;13.00;97.80;;;;;;5095808;28;20591;-87
2022/11/18 12:45:52;;;;;;;69.95;5.05;;;13.00;92.20;;;;;;5096835;28;20159;-88
2022/11/18 12:48:41;;;;;;;70.88;4.28;;;13.10;94.20;;;;;;5097032;28;20234;-88
2022/11/18 12:51:06;;;;;;;71.75;4.43;;;13.00;92.00;;;;;;5096355;28;20236;-88
2022/11/18 12:53:46;;;;;;;69.40;4.30;;;13.00;93.70;;;;;;5094691;28;20171;-88
2022/11/18 12:56:41;;;;;;;68.35;4.32;;;13.00;92.90;;;;;;5094529;28;20648;-88
2022/11/18 12:59:11;;;;;;;71.40;5.93;;;13.00;90.50;;;;;;5087509;28;20175;-87
2022/11/18 13:01:37;;;;;;;67.80;5.35;;;13.00;87.90;;;;;;5095398;28;20156;-87
2022/11/18 13:04:21;;;;;;;72.50;4.43;;;12.90;84.40;;;;;;5094597;28;20167;-87
2022/11/18 13:06:47;;;;;;;76.22;4.55;;;12.90;92.30;;;;;;5096073;28;20610;-88
2022/11/18 13:09:34;;;;;;;69.93;4.30;;;13.00;91.10;;;;;;5094400;28;20220;-87
2022/11/18 13:12:17;;;;;;;66.63;4.43;;;13.00;91.10;;;;;;5094304;28;20409;-87
2022/11/18 13:17:50;;;;;;;69.40;4.70;;;13.00;95.10;;;;;;5101146;28;20166;-87
2022/11/18 13:20:32;;;;;;;68.32;5.22;;;13.00;92.30;;;;;;5098421;28;20179;-87